sensor_id;sensor_type;location;lat;lon;timestamp;pressure;altitude;pressure_sealevel;temperature;humidity
46382;BME280;66809;52.974;-2.514;2023-05-12T00:01:48;1014.5780984021013;;;10.658648135677687;43.258211483546816
46382;BME280;66809;52.974;-2.514;2023-05-12T00:03:48;1014.5889587498415;;;10.629163169597609;43.1889222780373
46382;BME280;66809;52.974;-2.514;2023-05-12T00:05:49;1014.5990036490427;;;10.60970999220398;43.133440854813315
46382;BME280;66809;52.974;-2.514;2023-05-12T00:07:49;1014.6090201723343;;;10.582584855064033;43.08735031980233
46382;BME280;66809;52.974;-2.514;2023-05-12T00:09:48;1014.6189499153786;;;10.555291676316099;43.05027049211324
46382;BME280;66809;52.974;-2.514;2023-05-12T00:11:48;1014.6298657746703;;;10.51832890869411;43.02338736380247
46382;BME280;66809;52.974;-2.514;2023-05-12T00:13:49;1014.6408584875645;;;10.493438732487546;43.02679981719677
46382;BME280;66809;52.974;-2.514;2023-05-12T00:15:49;1014.652558846791;;;10.4632480472566;43.03787498902812
46382;BME280;66809;52.974;-2.514;2023-05-12T00:17:48;1014.6630763174691;;;10.437518868206663;43.04944465973461
46382;BME280;66809;52.974;-2.514;2023-05-12T00:19:48;1014.673908575463;;;10.415024493347971;43.05103063506094
46382;BME280;66809;52.974;-2.514;2023-05-12T00:21:49;1014.6846829057353;;;10.39406770533669;43.05154126237739
46382;BME280;66809;52.974;-2.514;2023-05-12T00:23:48;1014.6968430726558;;;10.378805455384148;43.03726320796057
46382;BME280;66809;52.974;-2.514;2023-05-12T00:25:48;1014.7103786298131;;;10.356697598658048;43.016808382212616
46382;BME280;66809;52.974;-2.514;2023-05-12T00:27:48;1014.7249944677039;;;10.332968148130693;42.99546169185187
46382;BME280;66809;52.974;-2.514;2023-05-12T00:29:49;1014.740110824459;;;10.314109828449071;42.972060686020754
46382;BME280;66809;52.974;-2.514;2023-05-12T00:31:48;1014.7539015557961;;;10.300856569254865;42.94709509791703
46382;BME280;66809;52.974;-2.514;2023-05-12T00:33:48;1014.7675936370545;;;10.278152172501175;42.922720743366405
46382;BME280;66809;52.974;-2.514;2023-05-12T00:35:48;1014.7822579115183;;;10.25846206414842;42.86682468418958
46382;BME280;66809;52.974;-2.514;2023-05-12T00:37:48;1014.7969104484245;;;10.230044299470842;42.80857779153914
46382;BME280;66809;52.974;-2.514;2023-05-12T00:39:48;1014.8115962547088;;;10.21295224703318;42.76363082722234
46382;BME280;66809;52.974;-2.514;2023-05-12T00:41:54;1014.826152135654;;;10.182443305863707;42.72611033548769
46382;BME280;66809;52.974;-2.514;2023-05-12T00:43:49;1014.8399869386719;;;10.145379874068189;42.69612320736083
46382;BME280;66809;52.974;-2.514;2023-05-12T00:45:49;1014.8540675611473;;;10.118661145599958;42.683657690933195
46382;BME280;66809;52.974;-2.514;2023-05-12T00:47:49;1014.8678532739643;;;10.089471314464236;42.67364639988522
46382;BME280;66809;52.974;-2.514;2023-05-12T00:49:48;1014.8816691252299;;;10.061449359920061;42.656686824663325
46382;BME280;66809;52.974;-2.514;2023-05-12T00:51:48;1014.8953223974826;;;10.043105392086236;42.6498112034559
46382;BME280;66809;52.974;-2.514;2023-05-12T00:53:48;1014.9086813567624;;;10.009738835523425;42.638044884507195
46382;BME280;66809;52.974;-2.514;2023-05-12T00:55:48;1014.9210311185403;;;9.99457925255901;42.63235296140064
46382;BME280;66809;52.974;-2.514;2023-05-12T00:57:49;1014.9335664351466;;;9.965954404607299;42.63900211237774
46382;BME280;66809;52.974;-2.514;2023-05-12T00:59:48;1014.945991945773;;;9.94037110532064;42.65536616894351
46382;BME280;66809;52.974;-2.514;2023-05-12T01:01:48;1014.9571866078008;;;9.921078899396017;42.670763979686626
46382;BME280;66809;52.974;-2.514;2023-05-12T01:03:48;1014.9675391106259;;;9.901133399473824;42.697826799161426
46382;BME280;66809;52.974;-2.514;2023-05-12T01:05:51;1014.9783481746229;;;9.881413864108563;42.71011611906512
46382;BME280;66809;52.974;-2.514;2023-05-12T01:07:49;1014.9895374330438;;;9.86745903474836;42.70771922577875
46382;BME280;66809;52.974;-2.514;2023-05-12T01:09:53;1015.0023180878571;;;9.857896422537467;42.70179494683218
46382;BME280;66809;52.974;-2.514;2023-05-12T01:11:48;1015.015821272484;;;9.837824011572307;42.69264079629314
46382;BME280;66809;52.974;-2.514;2023-05-12T01:13:48;1015.0298764222558;;;9.827690064007635;42.68279615507531
46382;BME280;66809;52.974;-2.514;2023-05-12T01:15:49;1015.0442046737469;;;9.810220239160143;42.665512885088596
46382;BME280;66809;52.974;-2.514;2023-05-12T01:17:52;1015.0596946411372;;;9.792963416332006;42.6455824561043
46382;BME280;66809;52.974;-2.514;2023-05-12T01:19:51;1015.0763121232947;;;9.775479740429505;42.63260056377889
46382;BME280;66809;52.974;-2.514;2023-05-12T01:21:49;1015.0927415417002;;;9.752903531484467;42.617174483358525
46382;BME280;66809;52.974;-2.514;2023-05-12T01:23:55;1015.1085241566694;;;9.736293670460618;42.60654661430532
46382;BME280;66809;52.974;-2.514;2023-05-12T01:25:49;1015.1238332609438;;;9.721086952729433;42.60052201047903
46382;BME280;66809;52.974;-2.514;2023-05-12T01:27:49;1015.138604815774;;;9.70082130965386;42.592539045677725
46382;BME280;66809;52.974;-2.514;2023-05-12T01:29:50;1015.1530619344413;;;9.680219586337381;42.578884672490716
46382;BME280;66809;52.974;-2.514;2023-05-12T01:31:49;1015.1693635322404;;;9.66423148957379;42.565328460425185
46382;BME280;66809;52.974;-2.514;2023-05-12T01:33:48;1015.1862925889237;;;9.647554429727167;42.543750402999834
46382;BME280;66809;52.974;-2.514;2023-05-12T01:35:48;1015.2035203283208;;;9.636882779761855;42.563967582898194
46382;BME280;66809;52.974;-2.514;2023-05-12T01:37:48;1015.2221266992261;;;9.62523853615557;42.602873668906746
46382;BME280;66809;52.974;-2.514;2023-05-12T01:39:49;1015.242711796093;;;9.602260177871896;42.63199242087878
46382;BME280;66809;52.974;-2.514;2023-05-12T01:41:48;1015.2644308406402;;;9.598754522108658;42.65730041468467
46382;BME280;66809;52.974;-2.514;2023-05-12T01:43:48;1015.2873071640519;;;9.607761294423108;42.67820893776935
46382;BME280;66809;52.974;-2.514;2023-05-12T01:45:48;1015.3103390137514;;;9.604969807813314;42.68434737104306
46382;BME280;66809;52.974;-2.514;2023-05-12T01:47:48;1015.3335750975142;;;9.60559886107204;42.69145555639433
46382;BME280;66809;52.974;-2.514;2023-05-12T01:49:49;1015.357189848884;;;9.600886269561537;42.704235545646526
46382;BME280;66809;52.974;-2.514;2023-05-12T01:51:48;1015.3808125436831;;;9.586680518507508;42.71369271957728
46382;BME280;66809;52.974;-2.514;2023-05-12T01:53:48;1015.4040876387276;;;9.58383316675459;42.716210854303874
46382;BME280;66809;52.974;-2.514;2023-05-12T01:55:49;1015.427668240851;;;9.573705802990519;42.70630497890753
46382;BME280;66809;52.974;-2.514;2023-05-12T01:57:48;1015.4506293801154;;;9.564438396519868;42.69532055538177
46382;BME280;66809;52.974;-2.514;2023-05-12T01:59:48;1015.4742555249468;;;9.566218516061383;42.67807907894738
46382;BME280;66809;52.974;-2.514;2023-05-12T02:01:48;1015.4975734292794;;;9.564312189610904;42.67121127973905
46382;BME280;66809;52.974;-2.514;2023-05-12T02:03:48;1015.5212399705174;;;9.567495447484337;42.675787304237694
46382;BME280;66809;52.974;-2.514;2023-05-12T02:05:49;1015.5441755267314;;;9.57326107421735;42.68975819474992
46382;BME280;66809;52.974;-2.514;2023-05-12T02:07:48;1015.5666541622575;;;9.575813254347139;42.7004138524732
46382;BME280;66809;52.974;-2.514;2023-05-12T02:09:48;1015.5881567021914;;;9.563858312836498;42.69962751202525
46382;BME280;66809;52.974;-2.514;2023-05-12T02:11:49;1015.6084439786811;;;9.570175517194732;42.678979031484836
46382;BME280;66809;52.974;-2.514;2023-05-12T02:13:48;1015.6289282777216;;;9.561639098400018;42.62741625680813
46382;BME280;66809;52.974;-2.514;2023-05-12T02:15:49;1015.6490554532596;;;9.552465073965973;42.5746784714935
46382;BME280;66809;52.974;-2.514;2023-05-12T02:17:48;1015.6684881916761;;;9.534886128149685;42.53963158995392
46382;BME280;66809;52.974;-2.514;2023-05-12T02:19:48;1015.6877544278162;;;9.52598535667671;42.51699414228613
46382;BME280;66809;52.974;-2.514;2023-05-12T02:21:49;1015.7060113229577;;;9.515760040474166;42.49611370984096
46382;BME280;66809;52.974;-2.514;2023-05-12T02:23:49;1015.7235216872325;;;9.492983255140475;42.467999457993265
46382;BME280;66809;52.974;-2.514;2023-05-12T02:25:48;1015.7386127862113;;;9.47467431224654;42.45688368854591
46382;BME280;66809;52.974;-2.514;2023-05-12T02:27:48;1015.7523685270579;;;9.468748803581772;42.4444990540011
46382;BME280;66809;52.974;-2.514;2023-05-12T02:29:48;1015.7640370785996;;;9.465789182384036;42.447958382847744
46382;BME280;66809;52.974;-2.514;2023-05-12T02:31:48;1015.7749591619747;;;9.460039160150906;42.45338218405732
46382;BME280;66809;52.974;-2.514;2023-05-12T02:33:49;1015.7860956542022;;;9.455406600099998;42.46458081753312
46382;BME280;66809;52.974;-2.514;2023-05-12T02:35:48;1015.7986101724425;;;9.447448873895327;42.46688363144121
46382;BME280;66809;52.974;-2.514;2023-05-12T02:37:48;1015.8114761537101;;;9.439692795708067;42.44904781826559
46382;BME280;66809;52.974;-2.514;2023-05-12T02:39:49;1015.8223144818601;;;9.43654738702872;42.42837328641926
46382;BME280;66809;52.974;-2.514;2023-05-12T02:41:48;1015.8332780556261;;;9.422634676260474;42.403684293913514
46382;BME280;66809;52.974;-2.514;2023-05-12T02:43:48;1015.8440790588348;;;9.40674454327665;42.37410573527234
46382;BME280;66809;52.974;-2.514;2023-05-12T02:45:49;1015.8541488925964;;;9.390266275259828;42.33514932525041
46382;BME280;66809;52.974;-2.514;2023-05-12T02:47:49;1015.8647248531635;;;9.370326407195305;42.27097327079036
46382;BME280;66809;52.974;-2.514;2023-05-12T02:49:48;1015.8753897886131;;;9.35519141708776;42.20884065164477
46382;BME280;66809;52.974;-2.514;2023-05-12T02:51:48;1015.8861433071476;;;9.329267362925757;42.15978842508265
46382;BME280;66809;52.974;-2.514;2023-05-12T02:53:48;1015.8967176500339;;;9.31078639622727;42.13066722808999
46382;BME280;66809;52.974;-2.514;2023-05-12T02:55:48;1015.9077013524645;;;9.288047645025214;42.11962577722377
46382;BME280;66809;52.974;-2.514;2023-05-12T02:57:48;1015.9183983398912;;;9.270801759809103;42.10271783066444
46382;BME280;66809;52.974;-2.514;2023-05-12T02:59:49;1015.9291385704114;;;9.238460608167014;42.09432274034372
46382;BME280;66809;52.974;-2.514;2023-05-12T03:01:48;1015.9408130773027;;;9.211654346611892;42.07938296536964
46382;BME280;66809;52.974;-2.514;2023-05-12T03:03:48;1015.9523654629819;;;9.184402790217499;42.052317484602575
46382;BME280;66809;52.974;-2.514;2023-05-12T03:05:48;1015.9634913706037;;;9.156521087611196;42.0161632477007
46382;BME280;66809;52.974;-2.514;2023-05-12T03:07:48;1015.9741799806458;;;9.122931013911346;41.986847232635476
46382;BME280;66809;52.974;-2.514;2023-05-12T03:09:48;1015.9856101102521;;;9.103553998378347;41.9630116709479
46382;BME280;66809;52.974;-2.514;2023-05-12T03:11:48;1015.9974070851953;;;9.081406355325557;41.95591338983979
46382;BME280;66809;52.974;-2.514;2023-05-12T03:13:48;1016.0087170762948;;;9.051824055523118;41.970149954709875
46382;BME280;66809;52.974;-2.514;2023-05-12T03:15:49;1016.0200043632047;;;9.03736968766268;41.98840488865775
46382;BME280;66809;52.974;-2.514;2023-05-12T03:17:48;1016.0310810999723;;;9.023505477240128;41.97939350353515
46382;BME280;66809;52.974;-2.514;2023-05-12T03:19:48;1016.0410592441643;;;8.998526542696851;41.96538761709248
46382;BME280;66809;52.974;-2.514;2023-05-12T03:21:49;1016.0522348749076;;;8.983323488998694;41.94630641498595
46382;BME280;66809;52.974;-2.514;2023-05-12T03:23:48;1016.0647432861763;;;8.968557346193341;41.93787529430191
46382;BME280;66809;52.974;-2.514;2023-05-12T03:25:48;1016.0794073074345;;;8.948911678472722;41.90756143332728
46382;BME280;66809;52.974;-2.514;2023-05-12T03:27:49;1016.095500964636;;;8.921765080474096;41.86503942080761
46382;BME280;66809;52.974;-2.514;2023-05-12T03:29:48;1016.1128542895423;;;8.888745542817437;41.81957337423069
46382;BME280;66809;52.974;-2.514;2023-05-12T03:31:48;1016.129482968579;;;8.851844322188413;41.778104006641655
46382;BME280;66809;52.974;-2.514;2023-05-12T03:33:48;1016.144755463588;;;8.824637913076264;41.746686715023436
46382;BME280;66809;52.974;-2.514;2023-05-12T03:35:48;1016.1593273685907;;;8.791448356409921;41.72873596176737
46382;BME280;66809;52.974;-2.514;2023-05-12T03:37:49;1016.1738477504493;;;8.769093304076206;41.7256302961932
46382;BME280;66809;52.974;-2.514;2023-05-12T03:39:48;1016.1899945212139;;;8.743992800927334;41.71627753896295
46382;BME280;66809;52.974;-2.514;2023-05-12T03:41:48;1016.2063848372757;;;8.715810773093056;41.6971659188008
46382;BME280;66809;52.974;-2.514;2023-05-12T03:43:48;1016.2219958949396;;;8.693981576234243;41.67776736383783
46382;BME280;66809;52.974;-2.514;2023-05-12T03:45:48;1016.2386158448743;;;8.666572530022671;41.681909848112305
46382;BME280;66809;52.974;-2.514;2023-05-12T03:47:49;1016.2540709004545;;;8.642692302015519;41.70667729569302
46382;BME280;66809;52.974;-2.514;2023-05-12T03:49:48;1016.2681360094006;;;8.627438875491912;41.713778159700105
46382;BME280;66809;52.974;-2.514;2023-05-12T03:51:48;1016.2823077652769;;;8.61415990916254;41.69861616420156
46382;BME280;66809;52.974;-2.514;2023-05-12T03:53:48;1016.2963987528478;;;8.59055896423347;41.6815918521194
46382;BME280;66809;52.974;-2.514;2023-05-12T03:55:48;1016.3104161373742;;;8.572719748753446;41.65431483267682
46382;BME280;66809;52.974;-2.514;2023-05-12T03:57:48;1016.3238099378655;;;8.551036395088392;41.61513445346019
46382;BME280;66809;52.974;-2.514;2023-05-12T03:59:49;1016.3374385117793;;;8.537458899912995;41.579373497776814
46382;BME280;66809;52.974;-2.514;2023-05-12T04:01:48;1016.351347425015;;;8.528777740772131;41.547812817044
46382;BME280;66809;52.974;-2.514;2023-05-12T04:03:48;1016.3666942765852;;;8.512992523956308;41.514888928850105
46382;BME280;66809;52.974;-2.514;2023-05-12T04:05:49;1016.3833785950995;;;8.501658342345047;41.4917307839477
46382;BME280;66809;52.974;-2.514;2023-05-12T04:07:48;1016.4010189759609;;;8.49941304859453;41.46340036331305
46382;BME280;66809;52.974;-2.514;2023-05-12T04:09:48;1016.4191542438318;;;8.49797632025419;41.429506080493425
46382;BME280;66809;52.974;-2.514;2023-05-12T04:11:49;1016.4358503889728;;;8.489911481767994;41.39160615002442
46382;BME280;66809;52.974;-2.514;2023-05-12T04:13:48;1016.4521675632976;;;8.497120332172132;41.35956925759899
46382;BME280;66809;52.974;-2.514;2023-05-12T04:15:48;1016.4686065573699;;;8.503465772772575;41.33779119211921
46382;BME280;66809;52.974;-2.514;2023-05-12T04:17:49;1016.4862142832101;;;8.519135364090435;41.310730521183686
46382;BME280;66809;52.974;-2.514;2023-05-12T04:19:48;1016.5052733621503;;;8.539493227805842;41.26657598645751
46382;BME280;66809;52.974;-2.514;2023-05-12T04:21:48;1016.5244877535445;;;8.553368774144303;41.22310162799686
46382;BME280;66809;52.974;-2.514;2023-05-12T04:23:50;1016.5431722674978;;;8.578339283759318;41.16604393051206
46382;BME280;66809;52.974;-2.514;2023-05-12T04:25:48;1016.5620751411174;;;8.597732893291035;41.10605387856715
46382;BME280;66809;52.974;-2.514;2023-05-12T04:27:48;1016.5814254246014;;;8.622484938266398;41.06325724640523
46382;BME280;66809;52.974;-2.514;2023-05-12T04:29:48;1016.6018840306716;;;8.649757547470893;41.01792837713152
46382;BME280;66809;52.974;-2.514;2023-05-12T04:31:49;1016.6236932026171;;;8.669716042617946;40.959995412140664
46382;BME280;66809;52.974;-2.514;2023-05-12T04:33:48;1016.6466614464301;;;8.679307570489126;40.891715250943754
46382;BME280;66809;52.974;-2.514;2023-05-12T04:35:48;1016.6682574902984;;;8.693812237517871;40.81534434717842
46382;BME280;66809;52.974;-2.514;2023-05-12T04:37:49;1016.6894725130586;;;8.713367444748208;40.7387885840574
46382;BME280;66809;52.974;-2.514;2023-05-12T04:39:48;1016.7110193508546;;;8.731771597863956;40.66916533385232
46382;BME280;66809;52.974;-2.514;2023-05-12T04:41:48;1016.7316332199667;;;8.759833999898287;40.60490205156918
46382;BME280;66809;52.974;-2.514;2023-05-12T04:43:49;1016.753959017269;;;8.773422885943381;40.551285917344345
46382;BME280;66809;52.974;-2.514;2023-05-12T04:45:49;1016.7757876099178;;;8.789851624772336;40.48702629055524
46382;BME280;66809;52.974;-2.514;2023-05-12T04:47:48;1016.7991606243565;;;8.809274416728194;40.41758178899427
46382;BME280;66809;52.974;-2.514;2023-05-12T04:49:49;1016.8233991761747;;;8.824688511928043;40.36258350794258
46382;BME280;66809;52.974;-2.514;2023-05-12T04:51:48;1016.8474529347131;;;8.841850203207892;40.31832567156617
46382;BME280;66809;52.974;-2.514;2023-05-12T04:53:48;1016.8719683102039;;;8.871916226378026;40.26577572572588
46382;BME280;66809;52.974;-2.514;2023-05-12T04:55:48;1016.8957428114368;;;8.896287735365913;40.222122957334406
46382;BME280;66809;52.974;-2.514;2023-05-12T04:57:48;1016.9201869072535;;;8.92829906783752;40.199462941767656
46382;BME280;66809;52.974;-2.514;2023-05-12T04:59:49;1016.9446431351618;;;8.952725464993481;40.167315981767686
46382;BME280;66809;52.974;-2.514;2023-05-12T05:01:49;1016.9694429772959;;;8.957908037242568;40.135168241800685
46382;BME280;66809;52.974;-2.514;2023-05-12T05:03:48;1016.9933342057882;;;8.982216812596965;40.09920148011193
46382;BME280;66809;52.974;-2.514;2023-05-12T05:05:48;1017.0164278342364;;;9.0006012491125;40.04974646557414
46382;BME280;66809;52.974;-2.514;2023-05-12T05:07:48;1017.039048098313;;;9.01845734181709;39.99461457512449
46382;BME280;66809;52.974;-2.514;2023-05-12T05:09:48;1017.0623788869706;;;9.030264050801367;39.955997906337636
46382;BME280;66809;52.974;-2.514;2023-05-12T05:11:49;1017.0872388680616;;;9.049368063050833;39.93751637908315
46382;BME280;66809;52.974;-2.514;2023-05-12T05:13:48;1017.1124807780269;;;9.052805488970652;39.92607416711822
46382;BME280;66809;52.974;-2.514;2023-05-12T05:15:49;1017.1379781268339;;;9.06675272191889;39.90994017040073
46382;BME280;66809;52.974;-2.514;2023-05-12T05:17:48;1017.1623706289663;;;9.071736125412292;39.91130255879298
46382;BME280;66809;52.974;-2.514;2023-05-12T05:19:49;1017.185522639157;;;9.07231891496895;39.89994110961974
46382;BME280;66809;52.974;-2.514;2023-05-12T05:21:48;1017.2085899427892;;;9.082579709607472;39.87947819074001
46382;BME280;66809;52.974;-2.514;2023-05-12T05:23:48;1017.2318217168511;;;9.092269169300163;39.877500814848716
46382;BME280;66809;52.974;-2.514;2023-05-12T05:25:49;1017.255182892047;;;9.099731153502647;39.8852980918043
46382;BME280;66809;52.974;-2.514;2023-05-12T05:27:48;1017.2783216179597;;;9.107094325706651;39.88957223905923
46382;BME280;66809;52.974;-2.514;2023-05-12T05:29:48;1017.3009142515033;;;9.11830560217894;39.88493733813043
46382;BME280;66809;52.974;-2.514;2023-05-12T05:31:48;1017.3232652034574;;;9.135074014497778;39.8828323427297
46382;BME280;66809;52.974;-2.514;2023-05-12T05:33:48;1017.3456528759455;;;9.152338142932672;39.87896177715279
46382;BME280;66809;52.974;-2.514;2023-05-12T05:35:48;1017.36901015351;;;9.176277340445948;39.87030015212425
46382;BME280;66809;52.974;-2.514;2023-05-12T05:37:48;1017.392133961997;;;9.186734462045633;39.86458103118926
46382;BME280;66809;52.974;-2.514;2023-05-12T05:39:48;1017.4136430861862;;;9.199448769968482;39.86385686950799
46382;BME280;66809;52.974;-2.514;2023-05-12T05:41:48;1017.4360729515881;;;9.215055414194781;39.87438236128047
46382;BME280;66809;52.974;-2.514;2023-05-12T05:43:49;1017.4575195181623;;;9.254343299093188;39.8823619530411
46382;BME280;66809;52.974;-2.514;2023-05-12T05:45:49;1017.478705870942;;;9.308783067190257;39.88914363278994
46382;BME280;66809;52.974;-2.514;2023-05-12T05:47:48;1017.5005727843705;;;9.373086049129112;39.91070727784096
46382;BME280;66809;52.974;-2.514;2023-05-12T05:49:48;1017.5221227515148;;;9.458968632791782;39.93058931224305
46382;BME280;66809;52.974;-2.514;2023-05-12T05:51:49;1017.5446789047854;;;9.554663312646088;39.94318659460434
46382;BME280;66809;52.974;-2.514;2023-05-12T05:53:48;1017.567662375708;;;9.647977379092541;39.943163998496445
46382;BME280;66809;52.974;-2.514;2023-05-12T05:55:48;1017.5927798321786;;;9.751726998221194;39.91945497837082
46382;BME280;66809;52.974;-2.514;2023-05-12T05:57:48;1017.6183956600998;;;9.854520941007758;39.87009464005529
46382;BME280;66809;52.974;-2.514;2023-05-12T05:59:48;1017.6438228891961;;;9.957390543159738;39.825004373596805
46382;BME280;66809;52.974;-2.514;2023-05-12T06:01:49;1017.6689477880981;;;10.070450680552677;39.77134155111273
46382;BME280;66809;52.974;-2.514;2023-05-12T06:03:48;1017.693301520849;;;10.17122815236728;39.715766393709714
46382;BME280;66809;52.974;-2.514;2023-05-12T06:05:48;1017.7177094881665;;;10.282767460629493;39.66554181578301
46382;BME280;66809;52.974;-2.514;2023-05-12T06:07:48;1017.7424371418178;;;10.38898947523092;39.616316523720435
46382;BME280;66809;52.974;-2.514;2023-05-12T06:09:49;1017.7670901077748;;;10.501838650173564;39.55462929054238
46382;BME280;66809;52.974;-2.514;2023-05-12T06:11:49;1017.7918090739757;;;10.616908221789721;39.489155604059796
46382;BME280;66809;52.974;-2.514;2023-05-12T06:13:48;1017.815992673657;;;10.743764820990938;39.41446522095962
46382;BME280;66809;52.974;-2.514;2023-05-12T06:15:48;1017.8397598048725;;;10.849524133124667;39.33358307293402
46382;BME280;66809;52.974;-2.514;2023-05-12T06:17:49;1017.8641720627069;;;10.967249902046781;39.267603861156175
46382;BME280;66809;52.974;-2.514;2023-05-12T06:19:48;1017.8886871617558;;;11.090610752141105;39.22450370421541
46382;BME280;66809;52.974;-2.514;2023-05-12T06:21:48;1017.9138463050833;;;11.213584356743029;39.192815707280815
46382;BME280;66809;52.974;-2.514;2023-05-12T06:23:49;1017.9395402312263;;;11.33046773296511;39.15002785386893
46382;BME280;66809;52.974;-2.514;2023-05-12T06:25:48;1017.9647352367756;;;11.46272661377434;39.09849434854723
46382;BME280;66809;52.974;-2.514;2023-05-12T06:27:49;1017.9896270776785;;;11.587751268453841;39.02185140449103
46382;BME280;66809;52.974;-2.514;2023-05-12T06:29:49;1018.0134733805028;;;11.70454180125794;38.96501020071071
46382;BME280;66809;52.974;-2.514;2023-05-12T06:31:48;1018.0362390980912;;;11.81882010855566;38.91956137105476
46382;BME280;66809;52.974;-2.514;2023-05-12T06:33:49;1018.058972331579;;;11.936133126556989;38.86978468933005
46382;BME280;66809;52.974;-2.514;2023-05-12T06:35:48;1018.0807372512512;;;12.041538646559712;38.84130130990215
46382;BME280;66809;52.974;-2.514;2023-05-12T06:37:48;1018.1013590989263;;;12.15744564012984;38.7975029562704
46382;BME280;66809;52.974;-2.514;2023-05-12T06:39:49;1018.1229431514322;;;12.261726204855316;38.74363992453572
46382;BME280;66809;52.974;-2.514;2023-05-12T06:41:48;1018.1432714358928;;;12.357853929688043;38.69378746555464
46382;BME280;66809;52.974;-2.514;2023-05-12T06:43:48;1018.1624695918888;;;12.449650190440876;38.638435485104004
46382;BME280;66809;52.974;-2.514;2023-05-12T06:45:48;1018.1821030153899;;;12.533538150849145;38.59173989903743
46382;BME280;66809;52.974;-2.514;2023-05-12T06:47:48;1018.2012704428201;;;12.597753850851802;38.51434543912314
46382;BME280;66809;52.974;-2.514;2023-05-12T06:49:48;1018.2212618558864;;;12.639595423937674;38.456713635133355
46382;BME280;66809;52.974;-2.514;2023-05-12T06:51:49;1018.2401235365943;;;12.661365759875675;38.40858652107484
46382;BME280;66809;52.974;-2.514;2023-05-12T06:53:48;1018.2591279147432;;;12.676423948789129;38.38834137961021
46382;BME280;66809;52.974;-2.514;2023-05-12T06:55:48;1018.2769063361469;;;12.685340888998882;38.386631332976734
46382;BME280;66809;52.974;-2.514;2023-05-12T06:57:49;1018.2935720865559;;;12.683074449504595;38.39470025434764
46382;BME280;66809;52.974;-2.514;2023-05-12T06:59:48;1018.309170092291;;;12.68129317562142;38.417357477230794
46382;BME280;66809;52.974;-2.514;2023-05-12T07:01:48;1018.3245541987424;;;12.68137719799961;38.45114057442161
46382;BME280;66809;52.974;-2.514;2023-05-12T07:03:48;1018.3397875880968;;;12.69188623507812;38.49751628506172
46382;BME280;66809;52.974;-2.514;2023-05-12T07:05:48;1018.3554389141868;;;12.698895874019772;38.54062546500995
46382;BME280;66809;52.974;-2.514;2023-05-12T07:07:48;1018.3700102569384;;;12.712927633017225;38.589153031794424
46382;BME280;66809;52.974;-2.514;2023-05-12T07:09:49;1018.3829391441769;;;12.7167520761329;38.64201579755707
46382;BME280;66809;52.974;-2.514;2023-05-12T07:11:48;1018.3951757551711;;;12.718845674308;38.69056407491949